Accueil
METAR-TAF:

METAR-TAF

Aéroports :

Aéroport de La Grande-4

La Grande-4, Québec, Canada

latitude: 53-45N, longitude: 073-40W, altitude: 306 m

Observation

Le bulletin a été fait il y a 43 minutes, à 19:00 UTC
Vent 8 kt de nord-est avec des rafales jusqu'à 16 kt, variant entre nord et est/sud-est
Température 10°C
Humidité 34%
Pression 1014 hPa
Visibilité: 14.5 km
Ciel clair

METAR: CYAH 021900Z AUTO 04008G16KT 360V120 9SM CLR 10/M05 A2994 RMK SLP155

Heure: 15:43 (19:43 UTC)

Prévision

Le bulletin a été fait il y a 2 heures et 5 minutes, à 17:38 UTC
Prévision valable du 02 à 18 UTC au 02 à 21 UTC
Vent 10 kt de est/nord-est
Visibilité: 10 km
Nuages épars à une hauteur de 5000 ft
Temporairement
du 02 à 18 UTC au 02 à 21 UTC
Nuages fragmentés à une hauteur de 5000 ft

TAF: CYAH 021738Z 0218/0221 07010KT P6SM SCT050 TEMPO 0218/0221 BKN050 RMK FCST BASED ON AUTO OBS. NXT FCST WILL BE ISSUED AT 031045Z

Observations et prévisions météorologiques de plus de 4000 aéroports (messages METAR et TAF).

Les stations disponibles sont représentées par des disques jaunes et rouges sur la carte.

Passer la souris dessus pour voir le nom de la station.

Cliquer dessus pour voir les observations et prévisions météorologiques.

Pour changer de carte: cliquez sur les boutons verts avec une croix noire pour zoomer, sur le bouton vert avec un tiret pour effectuer un zoom arrière, ou sur les flèches vertes pour les cartes adjacentes.


METAR-TAF: